Time;durP1;ratioP1;P1;durP2;ratioP2;P2;SDS_P1;SDS_P2;PMS_P1;PMS_P2;Temp;Humidity;BMP_temperature;BMP_pressure;BME280_temperature;BME280_humidity;BME280_pressure;Samples;Min_cycle;Max_cycle;Signal;HPM_P1;HPM_P2
2022/09/16 00:00:09;;;;;;;2.17;0.70;;;;;;;10.48;96.43;100084.22;6021954;28;20470;-62
2022/09/16 00:03:04;;;;;;;4.05;0.95;;;;;;;10.49;96.46;100085.88;6021987;28;20030;-64
2022/09/16 00:06:00;;;;;;;2.53;0.73;;;;;;;10.51;96.25;100080.44;6027338;28;20035;-63
2022/09/16 00:08:57;;;;;;;2.25;0.40;;;;;;;10.48;96.31;100088.69;6026499;28;20084;-64
2022/09/16 00:11:52;;;;;;;0.60;0.40;;;;;;;10.47;96.22;100087.03;6019839;28;20419;-63
2022/09/16 00:14:48;;;;;;;1.73;0.67;;;;;;;10.46;96.68;100102.09;6027326;28;20053;-63
2022/09/16 00:17:43;;;;;;;3.70;0.63;;;;;;;10.38;97.01;100095.97;6026863;28;20026;-65
2022/09/16 00:20:50;;;;;;;1.43;0.50;;;;;;;10.32;96.60;100092.13;6026454;28;20137;-65
2022/09/16 00:23:45;;;;;;;3.20;0.50;;;;;;;10.39;97.40;100106.38;6026739;28;20488;-65
2022/09/16 00:26:41;;;;;;;2.60;1.03;;;;;;;10.29;97.13;100095.09;6021331;28;20121;-63
2022/09/16 00:29:37;;;;;;;6.45;0.88;;;;;;;10.34;98.00;100108.69;6026186;28;20030;-66
2022/09/16 00:32:32;;;;;;;2.07;0.70;;;;;;;10.34;98.00;100106.03;6025419;28;20489;-65
2022/09/16 00:35:27;;;;;;;7.60;1.80;;;;;;;10.43;98.08;100110.41;6026747;28;20042;-65
2022/09/16 00:38:23;;;;;;;3.10;0.95;;;;;;;10.29;98.23;100096.91;6026578;28;20109;-65
2022/09/16 00:41:24;;;;;;;2.33;0.70;;;;;;;10.39;98.49;100106.38;6025502;28;20034;-63
2022/09/16 00:45:04;;;;;;;3.15;1.25;;;;;;;10.45;98.11;100104.91;6029503;28;20481;-64
2022/09/16 00:48:02;;;;;;;2.65;0.82;;;;;;;10.33;98.11;100093.75;6049620;28;20038;-64
2022/09/16 00:51:05;;;;;;;1.85;0.60;;;;;;;10.39;97.87;100100.25;6028922;28;20106;-66
2022/09/16 00:54:02;;;;;;;6.57;0.85;;;;;;;10.36;98.58;100104.06;6025096;28;20073;-65
2022/09/16 00:56:58;;;;;;;1.83;0.70;;;;;;;10.45;98.27;100095.16;6025832;28;20510;-63
2022/09/16 00:59:55;;;;;;;3.40;0.80;;;;;;;10.65;97.62;100107.13;6025507;28;20096;-67
2022/09/16 01:02:50;;;;;;;6.53;0.80;;;;;;;10.71;96.27;100103.00;6024069;28;20034;-62
2022/09/16 01:05:46;;;;;;;3.00;0.80;;;;;;;10.71;96.01;100109.13;6026334;28;20030;-63
2022/09/16 01:08:42;;;;;;;3.25;0.80;;;;;;;10.73;95.68;100093.88;6041665;28;20029;-65
2022/09/16 01:11:37;;;;;;;5.32;0.80;;;;;;;10.82;95.33;100104.56;6029322;28;20027;-64
2022/09/16 01:17:52;;;;;;;5.38;1.10;;;;;;;10.83;94.76;100093.75;6012219;28;20034;-65
2022/09/16 01:21:13;;;;;;;5.82;1.10;;;;;;;10.89;94.29;100089.63;6024796;28;20054;-64
2022/09/16 01:24:48;;;;;;;7.55;1.13;;;;;;;10.90;94.68;100108.03;6027460;28;20033;-64
2022/09/16 01:27:44;;;;;;;2.05;0.63;;;;;;;10.89;94.58;100106.38;6023708;28;20497;-64
2022/09/16 01:30:45;;;;;;;2.50;0.80;;;;;;;10.82;94.82;100096.59;6023585;28;20046;-63
2022/09/16 01:33:45;;;;;;;2.90;0.75;;;;;;;10.74;94.70;100084.13;6046205;28;20389;-64
2022/09/16 01:36:56;;;;;;;5.05;1.00;;;;;;;10.78;95.24;100101.38;6048610;28;20165;-63
2022/09/16 01:40:10;;;;;;;1.95;0.70;;;;;;;10.83;95.46;100103.53;6047533;28;20385;-64
2022/09/16 01:43:20;;;;;;;2.67;0.90;;;;;;;10.88;95.58;100096.75;6048608;28;20026;-63
2022/09/16 01:46:21;;;;;;;1.77;0.80;;;;;;;10.88;95.57;100095.91;6036302;28;20054;-64
2022/09/16 01:49:25;;;;;;;3.13;0.70;;;;;;;10.96;94.98;100109.19;6023942;28;20117;-63
2022/09/16 01:52:33;;;;;;;5.70;0.90;;;;;;;10.98;94.61;100099.28;6024786;28;20034;-62
2022/09/16 01:55:42;;;;;;;1.50;0.65;;;;;;;10.99;94.46;100087.66;6024372;28;20125;-64
2022/09/16 01:58:46;;;;;;;3.42;1.15;;;;;;;11.02;94.18;100087.31;6022408;28;20493;-64
2022/09/16 02:01:51;;;;;;;5.03;1.05;;;;;;;11.03;94.51;100089.00;6022762;28;20091;-63
2022/09/16 02:04:49;;;;;;;6.32;1.13;;;;;;;11.14;94.13;100097.44;6034605;28;20030;-63
2022/09/16 02:07:49;;;;;;;2.13;0.90;;;;;;;11.09;94.20;100088.31;6046782;28;20034;-65
2022/09/16 02:10:47;;;;;;;8.88;2.15;;;;;;;11.07;94.27;100079.69;6033042;28;20042;-62
2022/09/16 02:13:48;;;;;;;4.10;1.08;;;;;;;11.14;93.93;100089.47;6039320;28;20042;-65
2022/09/16 02:17:02;;;;;;;2.63;0.75;;;;;;;11.12;94.00;100088.81;6023255;28;20085;-65
2022/09/16 02:20:08;;;;;;;3.60;0.95;;;;;;;11.11;93.77;100091.66;6024250;28;20385;-65
2022/09/16 02:23:11;;;;;;;5.13;1.20;;;;;;;11.08;94.05;100082.19;6024250;28;20037;-63
2022/09/16 02:26:09;;;;;;;4.38;0.73;;;;;;;11.14;93.65;100076.22;6022329;28;20441;-63
2022/09/16 02:29:18;;;;;;;4.82;1.02;;;;;;;11.16;93.91;100074.25;6022444;28;20038;-63
2022/09/16 02:32:14;;;;;;;2.70;1.10;;;;;;;11.09;92.90;100072.38;6023381;28;20038;-64
2022/09/16 02:35:13;;;;;;;4.00;0.85;;;;;;;11.11;93.66;100076.56;6024066;28;20042;-64
2022/09/16 02:38:25;;;;;;;2.63;0.60;;;;;;;11.03;93.41;100073.06;6022884;28;20165;-63
2022/09/16 02:41:21;;;;;;;1.77;0.90;;;;;;;10.95;94.12;100081.03;6023377;28;20135;-63
2022/09/16 02:44:17;;;;;;;1.90;0.63;;;;;;;10.81;94.20;100065.75;6022508;28;20685;-63
2022/09/16 02:47:32;;;;;;;3.13;1.00;;;;;;;10.79;94.54;100070.38;6023494;28;20046;-64
2022/09/16 02:50:46;;;;;;;2.83;0.63;;;;;;;10.70;94.79;100080.97;6021876;28;20039;-62
2022/09/16 02:54:10;;;;;;;4.65;1.08;;;;;;;10.58;95.57;100069.00;6030578;28;20034;-62
2022/09/16 02:57:06;;;;;;;2.30;0.73;;;;;;;10.60;95.90;100082.09;6021103;28;20045;-65
2022/09/16 03:00:02;;;;;;;4.60;0.88;;;;;;;10.58;95.84;100074.31;6021936;28;20058;-64
2022/09/16 03:02:57;;;;;;;5.03;0.73;;;;;;;10.76;95.89;100063.59;6023142;28;20493;-63
2022/09/16 03:06:07;;;;;;;2.97;0.53;;;;;;;10.81;94.79;100069.22;6023048;28;20026;-64
2022/09/16 03:09:05;;;;;;;1.50;0.75;;;;;;;10.77;94.50;100062.59;6023351;28;20030;-64
2022/09/16 03:12:29;;;;;;;4.63;0.95;;;;;;;10.70;94.51;100057.13;6023420;28;20033;-63
2022/09/16 03:15:31;;;;;;;3.13;0.70;;;;;;;10.75;94.99;100065.41;6022533;28;20460;-62
2022/09/16 03:18:54;;;;;;;4.68;1.08;;;;;;;10.72;94.91;100064.91;6022795;28;20038;-62
2022/09/16 03:22:08;;;;;;;1.48;0.60;;;;;;;10.60;95.72;100063.53;6037332;28;20045;-65
2022/09/16 03:25:21;;;;;;;3.88;0.50;;;;;;;10.58;96.25;100063.72;6021920;28;20030;-63
2022/09/16 03:28:19;;;;;;;2.17;0.65;;;;;;;10.54;96.03;100053.59;6022025;28;20033;-63
2022/09/16 03:31:24;;;;;;;2.72;0.60;;;;;;;10.67;95.72;100070.69;6021379;28;20526;-64
2022/09/16 03:34:31;;;;;;;1.45;0.60;;;;;;;10.56;95.95;100067.50;6035367;28;20046;-65
2022/09/16 03:37:27;;;;;;;;;;;;;;;10.59;96.02;100075.97;6046637;28;20026;-63
2022/09/16 03:40:23;;;;;;;1.52;0.73;;;;;;;10.63;96.32;100077.31;6045296;28;19913;-63
2022/09/16 03:43:18;;;;;;;8.48;0.90;;;;;;;10.68;96.41;100071.53;6044881;28;20057;-63
2022/09/16 03:46:14;;;;;;;3.73;1.00;;;;;;;10.81;95.71;100073.69;6046351;28;20041;-64
2022/09/16 03:49:09;;;;;;;3.17;0.53;;;;;;;10.86;95.06;100066.09;6030634;28;20054;-66
2022/09/16 03:52:07;;;;;;;6.63;1.10;;;;;;;10.82;94.98;100067.41;6020819;28;20070;-65
2022/09/16 03:55:02;;;;;;;4.57;0.88;;;;;;;10.81;95.05;100071.06;6032106;28;20030;-65
2022/09/16 03:57:58;;;;;;;4.53;0.70;;;;;;;10.65;95.23;100053.28;6027753;28;20034;-64
2022/09/16 04:00:53;;;;;;;4.03;0.53;;;;;;;10.64;95.21;100051.63;6021998;28;20042;-63
2022/09/16 04:03:48;;;;;;;3.47;0.90;;;;;;;10.68;95.33;100056.44;6022139;28;20085;-65
2022/09/16 04:06:43;;;;;;;2.87;0.70;;;;;;;10.67;95.33;100052.13;6022080;28;20359;-65
2022/09/16 04:09:39;;;;;;;3.87;0.80;;;;;;;10.65;94.98;100054.09;6022790;28;20097;-64
2022/09/16 04:12:34;;;;;;;2.77;0.70;;;;;;;10.65;95.58;100062.06;6021796;28;20041;-63
2022/09/16 04:15:29;;;;;;;6.33;0.70;;;;;;;10.54;95.67;100054.44;6022570;28;20038;-65
2022/09/16 04:18:25;;;;;;;1.53;0.60;;;;;;;10.61;96.08;100063.38;6038398;28;20041;-63
2022/09/16 04:21:20;;;;;;;3.67;0.50;;;;;;;10.60;95.82;100039.66;6036559;28;20061;-64
2022/09/16 04:24:16;;;;;;;3.10;0.73;;;;;;;10.65;95.83;100048.00;6021335;28;20126;-65
2022/09/16 04:27:11;;;;;;;2.03;0.50;;;;;;;10.78;95.70;100048.34;6029865;28;20021;-64
2022/09/16 04:30:07;;;;;;;1.95;0.63;;;;;;;10.75;95.24;100038.88;6024231;28;20433;-64
2022/09/16 04:33:03;;;;;;;2.83;0.63;;;;;;;10.85;94.49;100040.53;6021835;28;20046;-64
2022/09/16 04:36:11;;;;;;;5.55;1.48;;;;;;;10.89;94.30;100034.75;6023317;28;20045;-63
2022/09/16 04:39:06;;;;;;;2.72;0.75;;;;;;;10.98;93.99;100049.66;6022404;28;20073;-63
2022/09/16 04:42:04;;;;;;;5.10;0.70;;;;;;;11.04;93.85;100049.00;6021393;28;20548;-63
2022/09/16 04:44:59;;;;;;;3.33;0.47;;;;;;;11.08;93.63;100045.06;6022190;28;20038;-63
2022/09/16 04:47:56;;;;;;;3.70;0.50;;;;;;;11.00;93.66;100029.13;6026250;28;20038;-63
2022/09/16 04:50:52;;;;;;;2.88;0.70;;;;;;;11.14;93.47;100052.31;6026310;28;20039;-63
2022/09/16 04:53:48;;;;;;;6.10;0.70;;;;;;;11.12;93.89;100043.72;6026164;28;20045;-64
2022/09/16 04:56:43;;;;;;;9.15;0.95;;;;;;;11.05;93.79;100033.94;6026041;28;20029;-64
2022/09/16 04:59:39;;;;;;;1.67;0.63;;;;;;;11.12;93.86;100043.72;6015186;28;20042;-65
2022/09/16 05:02:34;;;;;;;2.77;0.70;;;;;;;11.13;93.95;100049.84;6020360;28;20328;-66
2022/09/16 05:05:29;;;;;;;3.60;0.77;;;;;;;11.11;93.78;100039.41;6026143;28;20089;-63
2022/09/16 05:08:24;;;;;;;2.70;0.90;;;;;;;11.22;92.76;100047.00;6025166;28;20034;-65
2022/09/16 05:11:22;;;;;;;2.70;0.80;;;;;;;11.16;92.48;100041.56;6025125;28;20041;-64
2022/09/16 05:14:17;;;;;;;2.20;0.50;;;;;;;11.26;92.56;100055.47;6025875;28;20065;-64
2022/09/16 05:17:12;;;;;;;4.10;0.70;;;;;;;11.23;92.58;100059.31;6025504;28;20081;-63
2022/09/16 05:20:08;;;;;;;8.93;2.53;;;;;;;11.33;92.44;100065.25;6025177;28;20651;-62
2022/09/16 05:23:04;;;;;;;4.95;0.60;;;;;;;11.23;92.25;100053.16;6025490;28;20069;-62
2022/09/16 05:26:08;;;;;;;3.35;0.98;;;;;;;11.36;91.83;100069.41;6020262;28;20042;-65
2022/09/16 05:29:06;;;;;;;2.28;0.80;;;;;;;11.44;91.43;100069.41;6024274;28;20034;-65
2022/09/16 05:32:01;;;;;;;2.22;0.70;;;;;;;11.40;91.17;100065.44;6025187;28;20030;-65
2022/09/16 05:34:57;;;;;;;2.20;0.80;;;;;;;11.44;90.33;100055.31;6025093;28;20486;-63
2022/09/16 05:37:52;;;;;;;2.03;0.80;;;;;;;11.47;89.96;100071.72;6027102;28;20093;-62
2022/09/16 05:40:47;;;;;;;3.27;1.13;;;;;;;11.42;88.92;100047.50;6041528;28;20050;-65
2022/09/16 05:43:43;;;;;;;4.20;0.70;;;;;;;11.52;89.51;100061.47;6025252;28;20069;-62
2022/09/16 05:46:42;;;;;;;3.00;0.87;;;;;;;11.47;89.26;100045.16;6025045;28;20030;-66
2022/09/16 05:49:37;;;;;;;2.90;0.93;;;;;;;11.47;89.03;100039.88;6024491;28;20038;-63
2022/09/16 05:52:32;;;;;;;5.23;1.20;;;;;;;11.60;88.70;100050.00;6024249;28;20376;-63
2022/09/16 05:55:28;;;;;;;3.43;1.30;;;;;;;11.54;89.14;100040.88;6024971;28;20269;-62
2022/09/16 05:58:24;;;;;;;4.88;1.85;;;;;;;11.51;89.65;100043.84;6023310;28;20030;-64
2022/09/16 06:01:22;;;;;;;7.68;1.60;;;;;;;11.57;89.76;100040.53;6023479;28;20045;-63
2022/09/16 06:04:18;;;;;;;5.75;1.83;;;;;;;11.56;89.85;100044.16;6024330;28;20036;-62
2022/09/16 06:07:13;;;;;;;5.47;1.60;;;;;;;11.51;90.09;100046.50;6024347;28;20042;-64
2022/09/16 06:10:08;;;;;;;6.13;1.53;;;;;;;11.50;90.10;100046.66;6024034;28;20035;-62
2022/09/16 06:13:04;;;;;;;6.27;1.90;;;;;;;11.38;90.51;100048.03;6024397;28;20500;-64
2022/09/16 06:16:00;;;;;;;4.05;1.25;;;;;;;11.46;90.83;100048.84;6023313;28;20037;-65
2022/09/16 06:18:56;;;;;;;5.43;1.45;;;;;;;12.02;89.80;100039.09;6023335;28;20533;-66
2022/09/16 06:21:51;;;;;;;3.25;1.08;;;;;;;12.57;87.66;100045.16;6022767;28;20129;-62
2022/09/16 06:24:47;;;;;;;3.83;1.30;;;;;;;12.70;84.18;100033.94;6024122;28;20040;-63
2022/09/16 06:27:42;;;;;;;3.47;1.00;;;;;;;12.43;84.55;100027.28;6024130;28;20042;-64
2022/09/16 06:30:38;;;;;;;7.07;1.20;;;;;;;12.26;85.64;100031.00;6020112;28;20049;-63
2022/09/16 06:33:34;;;;;;;3.70;1.33;;;;;;;12.18;85.65;100039.03;6023505;28;20030;-65
2022/09/16 06:36:32;;;;;;;4.07;1.13;;;;;;;12.09;86.95;100045.41;6023829;28;20353;-66
2022/09/16 06:39:27;;;;;;;5.35;1.20;;;;;;;11.88;86.76;100028.19;6024118;28;20030;-65
2022/09/16 06:42:23;;;;;;;5.00;1.10;;;;;;;12.06;87.03;100038.59;6023021;28;20117;-63
2022/09/16 06:45:18;;;;;;;4.38;0.90;;;;;;;12.25;86.57;100040.84;6019508;28;20038;-63
2022/09/16 06:48:13;;;;;;;3.20;1.17;;;;;;;12.42;85.57;100015.81;6014255;28;20034;-65
2022/09/16 06:51:12;;;;;;;3.93;1.17;;;;;;;12.51;84.54;100029.88;6022503;28;20081;-65
2022/09/16 06:54:07;;;;;;;3.83;1.13;;;;;;;12.93;83.19;100030.28;6023035;28;20030;-62
2022/09/16 06:57:03;;;;;;;2.63;0.82;;;;;;;13.25;81.15;100029.22;6021915;28;20030;-63
2022/09/16 06:59:58;;;;;;;1.80;0.77;;;;;;;13.20;80.61;100023.59;6019035;28;20130;-64
2022/09/16 07:02:53;;;;;;;4.93;1.00;;;;;;;13.07;80.19;100032.19;6022994;28;20038;-62
2022/09/16 07:06:00;;;;;;;5.17;1.10;;;;;;;12.81;81.61;100031.69;6022187;28;20038;-63
2022/09/16 07:08:56;;;;;;;5.20;1.10;;;;;;;12.69;82.17;100030.44;6022202;28;20285;-65
2022/09/16 07:11:51;;;;;;;3.07;1.20;;;;;;;12.46;82.37;100048.19;6020828;28;20034;-64
2022/09/16 07:14:46;;;;;;;2.83;1.03;;;;;;;12.36;83.12;100034.31;6020033;28;20026;-63
2022/09/16 07:17:41;;;;;;;3.70;1.23;;;;;;;12.63;83.15;100036.47;6020719;28;20458;-64
2022/09/16 07:20:37;;;;;;;1.53;0.70;;;;;;;13.02;81.17;100023.88;6021073;28;20044;-64
2022/09/16 07:23:34;;;;;;;2.43;0.87;;;;;;;13.22;79.33;100039.38;6021091;28;20768;-63
2022/09/16 07:26:31;;;;;;;4.72;0.98;;;;;;;13.51;78.29;100037.63;6021793;28;20073;-64
2022/09/16 07:29:27;;;;;;;3.33;0.73;;;;;;;13.72;77.39;100043.06;6036088;28;20039;-65
2022/09/16 07:32:23;;;;;;;4.43;0.67;;;;;;;13.63;76.86;100040.66;6011189;28;20528;-63
2022/09/16 07:35:18;;;;;;;2.30;0.68;;;;;;;13.79;76.11;100037.00;6022209;28;20113;-63
2022/09/16 07:38:13;;;;;;;1.80;0.80;;;;;;;13.94;75.06;100040.50;6022128;28;20117;-64
2022/09/16 07:41:17;;;;;;;2.03;0.70;;;;;;;14.01;74.51;100052.91;6021397;28;20037;-64
2022/09/16 07:44:14;;;;;;;1.88;0.63;;;;;;;14.29;74.18;100059.22;6021855;28;20038;-64
2022/09/16 07:47:10;;;;;;;2.53;0.65;;;;;;;14.24;73.93;100032.28;6020827;28;20034;-62
2022/09/16 07:50:05;;;;;;;6.47;1.00;;;;;;;14.44;73.47;100042.41;6021657;28;20037;-64
2022/09/16 07:53:01;;;;;;;4.20;0.90;;;;;;;14.62;72.17;100048.19;6021400;28;20599;-63
2022/09/16 07:56:03;;;;;;;3.43;0.67;;;;;;;14.69;72.05;100054.41;6038544;28;20034;-65
2022/09/16 07:58:58;;;;;;;5.07;0.98;;;;;;;14.62;71.82;100056.97;6021113;28;20050;-64
2022/09/16 08:01:53;;;;;;;4.47;0.77;;;;;;;14.71;71.29;100055.03;6020883;28;20089;-63
2022/09/16 08:04:48;;;;;;;4.30;0.73;;;;;;;14.70;70.76;100048.88;6021644;28;20281;-64
2022/09/16 08:07:44;;;;;;;9.57;1.00;;;;;;;14.85;69.00;100060.34;6022274;28;20280;-64
2022/09/16 08:10:39;;;;;;;2.93;0.63;;;;;;;14.81;70.23;100051.03;6021721;28;20038;-65
2022/09/16 08:13:36;;;;;;;7.45;0.70;;;;;;;14.92;69.97;100068.41;6021066;28;20080;-64
2022/09/16 08:16:31;;;;;;;3.45;0.70;;;;;;;15.21;68.02;100052.28;6020809;28;20034;-64
2022/09/16 08:19:27;;;;;;;5.27;1.00;;;;;;;15.40;67.67;100059.63;6021308;28;20069;-65
2022/09/16 08:22:22;;;;;;;2.03;0.70;;;;;;;15.72;67.32;100068.09;6021455;28;20030;-65
2022/09/16 08:25:17;;;;;;;4.88;1.15;;;;;;;15.87;64.18;100058.16;6023944;28;20061;-64
2022/09/16 08:28:14;;;;;;;4.63;0.73;;;;;;;15.42;63.64;100070.09;6026295;28;20042;-64
2022/09/16 08:31:10;;;;;;;3.17;0.80;;;;;;;15.52;63.91;100048.44;6025007;28;20154;-64
2022/09/16 08:34:05;;;;;;;3.53;0.80;;;;;;;15.42;65.34;100057.59;6025469;28;20057;-66
2022/09/16 08:37:00;;;;;;;4.35;0.80;;;;;;;15.52;65.06;100059.13;6025970;28;20065;-64
2022/09/16 08:39:56;;;;;;;5.17;1.20;;;;;;;15.88;64.38;100065.13;6026423;28;20655;-63
2022/09/16 08:43:14;;;;;;;1.63;0.60;;;;;;;15.82;62.71;100065.91;6025252;28;20034;-64
2022/09/16 08:46:35;;;;;;;3.70;0.90;;;;;;;15.73;62.59;100035.84;6024646;28;20563;-66
2022/09/16 08:49:42;;;;;;;6.15;0.77;;;;;;;15.24;63.09;100051.06;6025686;28;20046;-63
2022/09/16 08:52:39;;;;;;;5.25;0.82;;;;;;;15.69;62.61;100055.13;6030328;28;20031;-64
2022/09/16 08:55:45;;;;;;;3.00;0.63;;;;;;;15.88;62.19;100049.91;6025613;28;20074;-64
2022/09/16 08:58:47;;;;;;;3.45;0.63;;;;;;;15.80;62.42;100047.41;6040744;28;20537;-64
2022/09/16 09:01:54;;;;;;;3.50;0.70;;;;;;;15.64;62.72;100054.91;6025371;28;20367;-65
2022/09/16 09:04:49;;;;;;;4.80;0.80;;;;;;;15.80;61.05;100044.72;6026527;28;20050;-65
2022/09/16 09:08:06;;;;;;;5.93;1.07;;;;;;;16.10;60.42;100066.72;6025985;28;20045;-64
2022/09/16 09:11:04;;;;;;;7.88;1.55;;;;;;;15.77;59.91;100069.19;6024937;28;20039;-65
2022/09/16 09:14:26;;;;;;;4.22;0.65;;;;;;;15.87;61.78;100050.13;6025545;28;20046;-65
2022/09/16 09:17:40;;;;;;;6.07;0.80;;;;;;;16.28;60.34;100060.84;6023615;28;20041;-65
2022/09/16 09:20:49;;;;;;;7.72;0.93;;;;;;;16.72;59.08;100047.84;6024237;28;20044;-64
2022/09/16 09:24:39;;;;;;;5.70;0.80;;;;;;;16.31;59.81;100053.22;6025861;28;20045;-65
2022/09/16 09:27:59;;;;;;;4.05;1.30;;;;;;;15.89;60.09;100069.47;6020355;28;20042;-65
2022/09/16 09:31:13;;;;;;;3.50;1.00;;;;;;;15.88;60.70;100052.59;6014469;28;20105;-64
2022/09/16 09:34:41;;;;;;;3.28;0.73;;;;;;;15.53;61.93;100055.41;6023969;28;20050;-64
2022/09/16 09:37:51;;;;;;;3.47;0.70;;;;;;;15.27;61.49;100067.50;6024030;28;20074;-64
2022/09/16 09:40:51;;;;;;;6.25;0.80;;;;;;;15.49;59.20;100055.81;6024774;28;20480;-64
2022/09/16 09:43:53;;;;;;;2.55;0.70;;;;;;;15.79;59.12;100050.28;6024116;28;20564;-64
2022/09/16 09:46:53;;;;;;;5.50;0.93;;;;;;;15.67;59.44;100041.13;6032538;28;20050;-64
2022/09/16 09:49:56;;;;;;;4.82;1.33;;;;;;;15.94;59.89;100049.13;6034365;28;20444;-63
2022/09/16 09:53:11;;;;;;;4.85;0.93;;;;;;;15.97;57.23;100048.75;6038983;28;20062;-65
2022/09/16 09:56:10;;;;;;;6.03;1.00;;;;;;;15.60;57.20;100053.66;6024538;28;20050;-63
2022/09/16 09:59:38;;;;;;;4.05;0.68;;;;;;;15.24;58.54;100051.88;6024784;28;20038;-63
2022/09/16 10:02:34;;;;;;;6.85;1.00;;;;;;;15.10;59.26;100035.94;5993223;28;20049;-63
2022/09/16 10:05:29;;;;;;;9.75;1.48;;;;;;;15.74;56.84;100023.28;6024927;28;20030;-62
2022/09/16 10:08:26;;;;;;;7.17;1.20;;;;;;;15.67;56.03;100041.97;6024559;28;20703;-65
2022/09/16 10:11:25;;;;;;;9.93;1.13;;;;;;;15.43;57.03;100040.53;6023883;28;20278;-62
2022/09/16 10:14:31;;;;;;;3.63;0.68;;;;;;;15.09;58.05;100037.75;6024410;28;20118;-64
2022/09/16 10:17:30;;;;;;;3.13;0.70;;;;;;;15.13;59.24;100028.38;6023797;28;20474;-62
2022/09/16 10:20:27;;;;;;;6.65;0.80;;;;;;;15.38;58.96;100034.94;6023728;28;20081;-63
2022/09/16 10:23:24;;;;;;;6.43;0.80;;;;;;;15.16;58.98;100030.66;6023886;28;20109;-64
2022/09/16 10:26:24;;;;;;;5.43;1.00;;;;;;;15.44;59.84;100027.97;6015072;28;21595;-64
2022/09/16 10:29:20;;;;;;;4.93;0.80;;;;;;;16.01;58.60;100007.19;6024205;28;20042;-64
2022/09/16 10:32:17;;;;;;;5.23;1.00;;;;;;;16.56;56.02;100008.88;6028852;28;20041;-65
2022/09/16 10:35:21;;;;;;;7.63;0.73;;;;;;;16.96;54.78;100011.66;6021620;28;20044;-64
2022/09/16 10:38:18;;;;;;;6.90;0.85;;;;;;;16.55;54.19;100015.25;6018874;28;20026;-64
2022/09/16 10:41:15;;;;;;;2.65;0.55;;;;;;;16.25;54.56;100008.53;6026030;28;20045;-63
2022/09/16 10:44:17;;;;;;;1.92;0.75;;;;;;;16.34;54.23;100018.03;6023822;28;20038;-63
2022/09/16 10:47:24;;;;;;;6.15;0.85;;;;;;;16.01;55.96;100012.53;6021403;28;20637;-64
2022/09/16 10:50:19;;;;;;;3.53;0.65;;;;;;;15.84;56.80;100016.59;6018876;28;20066;-64
2022/09/16 10:53:26;;;;;;;4.22;0.77;;;;;;;15.62;56.84;100008.81;6021789;28;20042;-65
2022/09/16 10:56:30;;;;;;;2.88;0.77;;;;;;;15.22;56.95;100005.81;6018317;28;20054;-64
2022/09/16 10:59:25;;;;;;;5.05;0.80;;;;;;;15.01;59.47;100007.69;6022323;28;20502;-67
2022/09/16 11:02:47;;;;;;;1.77;0.55;;;;;;;14.84;59.21;99999.09;6021372;28;20030;-65
2022/09/16 11:06:06;;;;;;;2.58;0.60;;;;;;;15.03;58.62;100003.81;6023572;28;20088;-64
2022/09/16 11:09:40;;;;;;;3.40;0.60;;;;;;;15.29;59.52;99996.03;6034252;28;20541;-64
2022/09/16 11:12:58;;;;;;;4.13;0.70;;;;;;;16.36;55.82;99989.22;6024273;28;20494;-66
2022/09/16 11:16:04;;;;;;;4.30;0.95;;;;;;;16.97;54.06;99990.00;6023537;28;20345;-68
2022/09/16 11:19:10;;;;;;;3.85;0.60;;;;;;;16.17;52.25;99973.91;6026163;28;20029;-65
2022/09/16 11:22:15;;;;;;;4.80;0.80;;;;;;;16.35;51.96;99992.13;6021613;28;20446;-65
2022/09/16 11:25:37;;;;;;;6.18;0.85;;;;;;;16.90;48.63;99991.03;6022617;28;20485;-63
2022/09/16 11:28:53;;;;;;;4.80;0.82;;;;;;;17.83;46.71;99977.34;6022447;28;20038;-62
2022/09/16 11:32:00;;;;;;;10.30;1.00;;;;;;;18.34;46.62;99980.06;6019026;28;20038;-64
2022/09/16 11:35:16;;;;;;;2.15;0.52;;;;;;;18.54;46.29;99978.13;6018183;28;20377;-64
2022/09/16 11:38:22;;;;;;;4.63;0.50;;;;;;;18.65;44.59;99972.06;6027033;28;20117;-63
2022/09/16 11:41:34;;;;;;;2.22;0.60;;;;;;;18.48;44.57;99968.22;6022070;28;20121;-64
2022/09/16 11:44:41;;;;;;;2.67;0.60;;;;;;;18.52;43.94;99963.25;6038283;28;20499;-62
2022/09/16 11:47:42;;;;;;;2.58;0.70;;;;;;;18.42;44.04;99977.97;6022958;28;20058;-62
2022/09/16 11:50:43;;;;;;;4.45;0.80;;;;;;;18.35;43.20;99976.31;6021582;28;20045;-64
2022/09/16 11:53:52;;;;;;;4.50;0.80;;;;;;;17.91;44.14;99968.28;6020279;28;20742;-66
2022/09/16 11:56:51;;;;;;;5.03;0.70;;;;;;;18.53;44.70;99978.34;6019334;28;20117;-65
2022/09/16 11:59:46;;;;;;;3.83;0.93;;;;;;;18.80;44.08;99961.84;6038608;28;20817;-65
2022/09/16 12:02:54;;;;;;;4.00;0.85;;;;;;;18.38;44.17;99965.16;6019479;28;20038;-64
2022/09/16 12:06:04;;;;;;;2.75;0.80;;;;;;;18.54;44.97;99963.84;6025132;28;20057;-64
2022/09/16 12:09:09;;;;;;;4.95;1.17;;;;;;;18.92;41.25;99957.41;6025476;28;20156;-66
2022/09/16 12:12:10;;;;;;;3.95;0.60;;;;;;;18.28;42.61;99938.78;6032163;28;20034;-64
2022/09/16 12:15:16;;;;;;;2.47;0.57;;;;;;;17.48;46.79;99946.47;6020791;28;20025;-67
2022/09/16 12:18:38;;;;;;;5.50;0.80;;;;;;;17.04;49.93;99949.84;6018738;28;20038;-63
2022/09/16 12:21:37;;;;;;;1.52;0.57;;;;;;;17.43;49.00;99933.69;6034051;28;20590;-63
2022/09/16 12:24:42;;;;;;;4.55;1.00;;;;;;;17.44;48.63;99932.69;6021941;28;20038;-65
2022/09/16 12:27:54;;;;;;;2.00;0.68;;;;;;;17.42;47.98;99948.13;6024000;28;20081;-65
2022/09/16 12:31:02;;;;;;;7.13;1.10;;;;;;;16.96;49.87;99958.88;6020249;28;20053;-64
2022/09/16 12:34:11;;;;;;;4.40;0.90;;;;;;;17.04;51.99;99955.19;6020733;28;20112;-66
2022/09/16 12:37:28;;;;;;;10.43;0.90;;;;;;;17.05;52.73;99956.81;6021480;28;20069;-65
2022/09/16 12:40:29;;;;;;;2.42;0.47;;;;;;;16.77;52.82;99958.91;6021419;28;20475;-65
2022/09/16 12:43:36;;;;;;;2.72;0.70;;;;;;;16.78;54.04;99968.56;6021538;28;20045;-64
2022/09/16 12:46:50;;;;;;;4.43;0.70;;;;;;;17.43;51.92;99965.88;6020166;28;20042;-66
2022/09/16 12:50:05;;;;;;;2.88;0.35;;;;;;;17.38;51.80;99956.81;6018562;28;20053;-67
2022/09/16 12:53:45;;;;;;;2.33;0.80;;;;;;;17.49;49.94;99948.97;6036014;28;20049;-65
2022/09/16 12:57:08;;;;;;;5.63;0.80;;;;;;;17.35;51.00;99947.31;5968273;28;20190;-65
2022/09/16 13:00:26;;;;;;;4.28;0.70;;;;;;;17.39;51.47;99945.88;6015181;28;20046;-64
2022/09/16 13:03:23;;;;;;;2.58;0.68;;;;;;;17.61;50.74;99923.16;6021126;28;20030;-66
2022/09/16 13:06:34;;;;;;;4.88;0.85;;;;;;;17.94;48.59;99917.69;6019842;28;20026;-64
2022/09/16 13:09:32;;;;;;;5.30;1.02;;;;;;;18.33;48.04;99911.28;6020151;28;20120;-66
2022/09/16 13:12:28;;;;;;;2.78;0.43;;;;;;;18.22;48.67;99931.59;6021558;28;20034;-64
2022/09/16 13:15:29;;;;;;;7.40;1.02;;;;;;;17.51;49.33;99930.78;6025228;28;20045;-64
2022/09/16 13:18:36;;;;;;;7.72;1.88;;;;;;;16.76;51.44;99933.97;6024785;28;20039;-65
2022/09/16 13:21:39;;;;;;;12.48;1.40;;;;;;;15.95;59.89;99973.22;6025018;28;20026;-67
2022/09/16 13:24:46;;;;;;;7.75;1.30;;;;;;;13.41;76.04;99969.63;6023307;28;20547;-68
2022/09/16 13:27:55;;;;;;;6.85;1.33;;;;;;;12.33;82.84;99978.81;6013983;28;20057;-65
2022/09/16 13:30:50;;;;;;;6.18;0.80;;;;;;;12.23;85.02;99980.88;6023519;28;20038;-66
2022/09/16 13:33:55;;;;;;;6.87;0.90;;;;;;;12.52;86.52;99962.41;6023344;28;20753;-66
2022/09/16 13:36:50;;;;;;;3.28;0.70;;;;;;;13.12;83.73;99970.44;6022144;28;20093;-65
2022/09/16 13:39:46;;;;;;;1.23;0.47;;;;;;;13.60;80.55;99955.78;6032532;28;20030;-65
2022/09/16 13:42:41;;;;;;;4.37;0.60;;;;;;;14.12;77.32;99958.28;6021999;28;20316;-65
2022/09/16 13:45:42;;;;;;;9.70;0.77;;;;;;;14.70;76.85;99957.31;6030579;28;20113;-64
2022/09/16 13:48:42;;;;;;;2.55;0.80;;;;;;;14.60;74.35;99951.44;6022568;28;20279;-65
2022/09/16 13:51:48;;;;;;;6.22;1.02;;;;;;;14.51;71.75;99944.59;6036096;28;20045;-66
2022/09/16 13:54:51;;;;;;;2.92;0.65;;;;;;;14.60;72.07;99954.13;6041809;28;20461;-66
2022/09/16 13:58:15;;;;;;;6.95;0.77;;;;;;;15.10;70.70;99939.78;6019054;28;20414;-65
2022/09/16 14:01:33;;;;;;;2.05;0.55;;;;;;;15.54;65.81;99928.81;6018902;28;20054;-65
2022/09/16 14:04:40;;;;;;;4.80;0.88;;;;;;;15.68;65.61;99946.56;6020889;28;20038;-66
2022/09/16 14:07:55;;;;;;;4.32;0.70;;;;;;;15.63;65.74;99946.31;6021042;28;20041;-66
2022/09/16 14:11:13;;;;;;;3.92;0.70;;;;;;;15.46;64.35;99938.59;6036437;28;20433;-65